sensor_id;sensor_type;location;lat;lon;timestamp;pressure;altitude;pressure_sealevel;temperature;humidity
69318;BME280;56457;52.190;4.440;2023-04-27T00:00:24;102237.16;;;5.40;100.00
69318;BME280;56457;52.190;4.440;2023-04-27T00:01:24;102238.75;;;5.37;100.00
69318;BME280;56457;52.190;4.440;2023-04-27T00:02:24;102236.09;;;5.35;100.00
69318;BME280;56457;52.190;4.440;2023-04-27T00:03:25;102238.63;;;5.34;100.00
69318;BME280;56457;52.190;4.440;2023-04-27T00:04:26;102245.72;;;5.38;100.00
69318;BME280;56457;52.190;4.440;2023-04-27T00:05:26;102236.09;;;5.35;100.00
69318;BME280;56457;52.190;4.440;2023-04-27T00:06:27;102236.19;;;5.38;100.00
69318;BME280;56457;52.190;4.440;2023-04-27T00:07:27;102239.84;;;5.44;100.00
69318;BME280;56457;52.190;4.440;2023-04-27T00:08:27;102238.19;;;5.46;100.00
69318;BME280;56457;52.190;4.440;2023-04-27T00:09:28;102238.31;;;5.49;100.00
69318;BME280;56457;52.190;4.440;2023-04-27T00:10:28;102238.19;;;5.46;100.00
69318;BME280;56457;52.190;4.440;2023-04-27T00:11:28;102229.63;;;5.48;100.00
69318;BME280;56457;52.190;4.440;2023-04-27T00:12:29;102236.63;;;5.51;100.00
69318;BME280;56457;52.190;4.440;2023-04-27T00:13:29;102238.34;;;5.50;100.00
69318;BME280;56457;52.190;4.440;2023-04-27T00:14:29;102233.16;;;5.50;100.00
69318;BME280;56457;52.190;4.440;2023-04-27T00:15:30;102235.72;;;5.49;100.00
69318;BME280;56457;52.190;4.440;2023-04-27T00:16:30;102227.84;;;5.47;100.00
69318;BME280;56457;52.190;4.440;2023-04-27T00:17:30;102232.22;;;5.48;100.00
69318;BME280;56457;52.190;4.440;2023-04-27T00:18:31;102225.06;;;5.43;100.00
69318;BME280;56457;52.190;4.440;2023-04-27T00:19:31;102232.94;;;5.44;100.00
69318;BME280;56457;52.190;4.440;2023-04-27T00:20:31;102239.16;;;5.48;100.00
69318;BME280;56457;52.190;4.440;2023-04-27T00:21:33;102229.50;;;5.45;100.00
69318;BME280;56457;52.190;4.440;2023-04-27T00:22:33;102233.09;;;5.49;100.00
69318;BME280;56457;52.190;4.440;2023-04-27T00:23:33;102229.72;;;5.51;100.00
69318;BME280;56457;52.190;4.440;2023-04-27T00:24:33;102236.59;;;5.49;100.00
69318;BME280;56457;52.190;4.440;2023-04-27T00:25:34;102228.81;;;5.51;100.00
69318;BME280;56457;52.190;4.440;2023-04-27T00:26:34;102231.25;;;5.46;100.00
69318;BME280;56457;52.190;4.440;2023-04-27T00:27:34;102232.06;;;5.44;100.00
69318;BME280;56457;52.190;4.440;2023-04-27T00:28:35;102223.22;;;5.40;100.00
69318;BME280;56457;52.190;4.440;2023-04-27T00:29:35;102227.56;;;5.39;100.00
69318;BME280;56457;52.190;4.440;2023-04-27T00:30:35;102230.94;;;5.37;100.00
69318;BME280;56457;52.190;4.440;2023-04-27T00:31:36;102232.72;;;5.38;100.00
69318;BME280;56457;52.190;4.440;2023-04-27T00:32:36;102231.84;;;5.37;100.00
69318;BME280;56457;52.190;4.440;2023-04-27T00:33:36;102233.59;;;5.38;100.00
69318;BME280;56457;52.190;4.440;2023-04-27T00:34:37;102228.56;;;5.43;100.00
69318;BME280;56457;52.190;4.440;2023-04-27T00:35:37;102230.38;;;5.46;100.00
69318;BME280;56457;52.190;4.440;2023-04-27T00:36:37;102227.84;;;5.47;100.00
69318;BME280;56457;52.190;4.440;2023-04-27T00:37:38;102225.16;;;5.46;100.00
69318;BME280;56457;52.190;4.440;2023-04-27T00:38:38;102226.06;;;5.46;100.00
69318;BME280;56457;52.190;4.440;2023-04-27T00:39:38;102230.66;;;5.53;100.00
69318;BME280;56457;52.190;4.440;2023-04-27T00:40:39;102226.22;;;5.51;100.00
69318;BME280;56457;52.190;4.440;2023-04-27T00:41:39;102226.19;;;5.49;100.00
69318;BME280;56457;52.190;4.440;2023-04-27T00:42:39;102223.66;;;5.52;100.00
69318;BME280;56457;52.190;4.440;2023-04-27T00:43:40;102224.63;;;5.54;100.00
69318;BME280;56457;52.190;4.440;2023-04-27T00:44:41;102221.97;;;5.53;100.00
69318;BME280;56457;52.190;4.440;2023-04-27T00:45:41;102222.88;;;5.53;100.00
69318;BME280;56457;52.190;4.440;2023-04-27T00:46:42;102214.97;;;5.52;100.00
69318;BME280;56457;52.190;4.440;2023-04-27T00:47:42;102222.66;;;5.47;100.00
69318;BME280;56457;52.190;4.440;2023-04-27T00:48:43;102217.16;;;5.39;100.00
69318;BME280;56457;52.190;4.440;2023-04-27T00:49:43;102209.28;;;5.38;100.00
69318;BME280;56457;52.190;4.440;2023-04-27T00:50:44;102219.75;;;5.39;100.00
69318;BME280;56457;52.190;4.440;2023-04-27T00:51:44;102217.09;;;5.38;100.00
69318;BME280;56457;52.190;4.440;2023-04-27T00:52:44;102219.69;;;5.38;100.00
69318;BME280;56457;52.190;4.440;2023-04-27T00:53:45;102214.44;;;5.36;100.00
69318;BME280;56457;52.190;4.440;2023-04-27T00:54:45;102216.94;;;5.33;100.00
69318;BME280;56457;52.190;4.440;2023-04-27T00:55:46;102219.66;;;5.36;100.00
69318;BME280;56457;52.190;4.440;2023-04-27T00:56:48;102216.22;;;5.37;100.00
69318;BME280;56457;52.190;4.440;2023-04-27T00:57:49;102218.88;;;5.39;100.00
69318;BME280;56457;52.190;4.440;2023-04-27T00:58:49;102212.81;;;5.40;100.00
69318;BME280;56457;52.190;4.440;2023-04-27T00:59:49;102216.34;;;5.40;100.00
69318;BME280;56457;52.190;4.440;2023-04-27T01:00:50;102225.84;;;5.40;100.00
69318;BME280;56457;52.190;4.440;2023-04-27T01:01:51;102220.53;;;5.37;100.00
69318;BME280;56457;52.190;4.440;2023-04-27T01:02:51;102224.94;;;5.39;100.00
69318;BME280;56457;52.190;4.440;2023-04-27T01:03:52;102226.63;;;5.37;100.00
69318;BME280;56457;52.190;4.440;2023-04-27T01:04:52;102223.16;;;5.37;100.00
69318;BME280;56457;52.190;4.440;2023-04-27T01:05:53;102223.94;;;5.34;100.00
69318;BME280;56457;52.190;4.440;2023-04-27T01:06:53;102227.47;;;5.36;100.00
69318;BME280;56457;52.190;4.440;2023-04-27T01:07:53;102225.78;;;5.38;100.00
69318;BME280;56457;52.190;4.440;2023-04-27T01:08:54;102230.28;;;5.43;100.00
69318;BME280;56457;52.190;4.440;2023-04-27T01:09:55;102228.72;;;5.48;100.00
69318;BME280;56457;52.190;4.440;2023-04-27T01:10:55;102223.66;;;5.52;100.00
69318;BME280;56457;52.190;4.440;2023-04-27T01:11:55;102228.00;;;5.52;100.00
69318;BME280;56457;52.190;4.440;2023-04-27T01:12:57;102224.50;;;5.51;100.00
69318;BME280;56457;52.190;4.440;2023-04-27T01:13:57;102225.38;;;5.52;100.00
69318;BME280;56457;52.190;4.440;2023-04-27T01:15:02;102215.84;;;5.52;100.00
69318;BME280;56457;52.190;4.440;2023-04-27T01:16:02;102212.22;;;5.47;100.00
69318;BME280;56457;52.190;4.440;2023-04-27T01:17:02;102218.19;;;5.45;100.00
69318;BME280;56457;52.190;4.440;2023-04-27T01:18:03;102217.06;;;5.36;100.00
69318;BME280;56457;52.190;4.440;2023-04-27T01:19:03;102214.31;;;5.33;100.00
69318;BME280;56457;52.190;4.440;2023-04-27T01:20:04;102204.66;;;5.29;100.00
69318;BME280;56457;52.190;4.440;2023-04-27T01:21:06;102211.63;;;5.30;100.00
69318;BME280;56457;52.190;4.440;2023-04-27T01:22:07;102208.09;;;5.28;100.00
69318;BME280;56457;52.190;4.440;2023-04-27T01:23:07;102210.56;;;5.25;100.00
69318;BME280;56457;52.190;4.440;2023-04-27T01:24:07;102202.78;;;5.25;100.00
69318;BME280;56457;52.190;4.440;2023-04-27T01:25:08;102199.94;;;5.19;100.00
69318;BME280;56457;52.190;4.440;2023-04-27T01:26:08;102204.41;;;5.22;100.00
69318;BME280;56457;52.190;4.440;2023-04-27T01:27:11;102201.78;;;5.22;100.00
69318;BME280;56457;52.190;4.440;2023-04-27T01:28:11;102200.06;;;5.22;100.00
69318;BME280;56457;52.190;4.440;2023-04-27T01:29:12;102201.78;;;5.22;100.00
69318;BME280;56457;52.190;4.440;2023-04-27T01:30:12;102209.47;;;5.19;100.00
69318;BME280;56457;52.190;4.440;2023-04-27T01:31:12;102199.06;;;5.19;100.00
69318;BME280;56457;52.190;4.440;2023-04-27T01:32:13;102200.00;;;5.21;100.00
69318;BME280;56457;52.190;4.440;2023-04-27T01:33:14;102191.91;;;5.13;100.00
69318;BME280;56457;52.190;4.440;2023-04-27T01:34:14;102188.47;;;5.14;100.00
69318;BME280;56457;52.190;4.440;2023-04-27T01:35:15;102187.56;;;5.12;100.00
69318;BME280;56457;52.190;4.440;2023-04-27T01:36:15;102190.16;;;5.12;100.00
69318;BME280;56457;52.190;4.440;2023-04-27T01:37:15;102191.88;;;5.11;100.00
69318;BME280;56457;52.190;4.440;2023-04-27T01:38:16;102187.28;;;5.04;100.00
69318;BME280;56457;52.190;4.440;2023-04-27T01:39:16;102189.72;;;5.00;100.00
69318;BME280;56457;52.190;4.440;2023-04-27T01:40:16;102190.41;;;4.96;100.00
69318;BME280;56457;52.190;4.440;2023-04-27T01:41:17;102189.44;;;4.92;100.00
69318;BME280;56457;52.190;4.440;2023-04-27T01:42:17;102186.66;;;4.88;100.00
69318;BME280;56457;52.190;4.440;2023-04-27T01:43:17;102191.06;;;4.90;100.00
69318;BME280;56457;52.190;4.440;2023-04-27T01:44:17;102187.91;;;4.97;100.00
69318;BME280;56457;52.190;4.440;2023-04-27T01:45:20;102181.97;;;5.01;100.00
69318;BME280;56457;52.190;4.440;2023-04-27T01:46:20;102182.97;;;5.05;100.00
69318;BME280;56457;52.190;4.440;2023-04-27T01:47:20;102189.09;;;5.07;100.00
69318;BME280;56457;52.190;4.440;2023-04-27T01:48:20;102189.09;;;5.07;100.00
69318;BME280;56457;52.190;4.440;2023-04-27T01:49:21;102190.88;;;5.08;100.00
69318;BME280;56457;52.190;4.440;2023-04-27T01:50:21;102191.75;;;5.08;100.00
69318;BME280;56457;52.190;4.440;2023-04-27T01:51:21;102197.06;;;5.11;100.00
69318;BME280;56457;52.190;4.440;2023-04-27T01:52:22;102190.16;;;5.12;100.00
69318;BME280;56457;52.190;4.440;2023-04-27T01:53:22;102194.53;;;5.13;100.00
69318;BME280;56457;52.190;4.440;2023-04-27T01:54:22;102190.13;;;5.10;100.00
69318;BME280;56457;52.190;4.440;2023-04-27T01:55:22;102190.03;;;5.09;100.00
69318;BME280;56457;52.190;4.440;2023-04-27T01:56:23;102190.78;;;5.05;100.00
69318;BME280;56457;52.190;4.440;2023-04-27T01:57:23;102185.41;;;5.00;100.00
69318;BME280;56457;52.190;4.440;2023-04-27T01:58:24;102198.22;;;4.96;100.00
69318;BME280;56457;52.190;4.440;2023-04-27T01:59:24;102192.09;;;4.94;100.00
69318;BME280;56457;52.190;4.440;2023-04-27T02:00:25;102195.53;;;4.93;100.00
69318;BME280;56457;52.190;4.440;2023-04-27T02:01:25;102193.84;;;4.95;100.00
69318;BME280;56457;52.190;4.440;2023-04-27T02:02:26;102183.34;;;4.92;100.00
69318;BME280;56457;52.190;4.440;2023-04-27T02:03:26;102194.66;;;4.92;100.00
69318;BME280;56457;52.190;4.440;2023-04-27T02:04:26;102194.50;;;4.89;100.00
69318;BME280;56457;52.190;4.440;2023-04-27T02:05:26;102190.84;;;4.84;100.00
69318;BME280;56457;52.190;4.440;2023-04-27T02:06:27;102188.34;;;4.85;100.00
69318;BME280;56457;52.190;4.440;2023-04-27T02:07:27;102184.84;;;4.85;100.00
69318;BME280;56457;52.190;4.440;2023-04-27T02:08:27;102186.66;;;4.88;100.00
69318;BME280;56457;52.190;4.440;2023-04-27T02:09:27;102186.66;;;4.88;100.00
69318;BME280;56457;52.190;4.440;2023-04-27T02:10:28;102185.78;;;4.87;100.00
69318;BME280;56457;52.190;4.440;2023-04-27T02:11:28;102189.25;;;4.88;100.00
69318;BME280;56457;52.190;4.440;2023-04-27T02:12:28;102185.06;;;4.91;100.00
69318;BME280;56457;52.190;4.440;2023-04-27T02:13:29;102187.59;;;4.90;100.00
69318;BME280;56457;52.190;4.440;2023-04-27T02:14:29;102184.25;;;4.92;100.00
69318;BME280;56457;52.190;4.440;2023-04-27T02:15:29;102179.19;;;4.97;100.00
69318;BME280;56457;52.190;4.440;2023-04-27T02:16:30;102180.09;;;4.97;100.00
69318;BME280;56457;52.190;4.440;2023-04-27T02:17:30;102183.63;;;4.99;100.00
69318;BME280;56457;52.190;4.440;2023-04-27T02:18:33;102172.38;;;5.00;100.00
69318;BME280;56457;52.190;4.440;2023-04-27T02:19:35;102168.94;;;5.01;100.00
69318;BME280;56457;52.190;4.440;2023-04-27T02:20:35;102163.75;;;5.01;100.00
69318;BME280;56457;52.190;4.440;2023-04-27T02:21:35;102175.00;;;5.00;100.00
69318;BME280;56457;52.190;4.440;2023-04-27T02:22:36;102177.41;;;4.96;100.00
69318;BME280;56457;52.190;4.440;2023-04-27T02:23:36;102177.50;;;4.97;100.00
69318;BME280;56457;52.190;4.440;2023-04-27T02:24:37;102168.72;;;4.95;100.00
69318;BME280;56457;52.190;4.440;2023-04-27T02:25:37;102173.84;;;4.92;100.00
69318;BME280;56457;52.190;4.440;2023-04-27T02:26:38;102173.72;;;4.89;100.00
69318;BME280;56457;52.190;4.440;2023-04-27T02:27:38;102178.31;;;4.72;100.00
69318;BME280;56457;52.190;4.440;2023-04-27T02:28:39;102179.13;;;4.71;100.00
69318;BME280;56457;52.190;4.440;2023-04-27T02:29:39;102166.75;;;4.66;100.00
69318;BME280;56457;52.190;4.440;2023-04-27T02:30:39;102171.91;;;4.64;100.00
69318;BME280;56457;52.190;4.440;2023-04-27T02:31:40;102163.28;;;4.65;100.00
69318;BME280;56457;52.190;4.440;2023-04-27T02:32:40;102164.94;;;4.63;100.00
69318;BME280;56457;52.190;4.440;2023-04-27T02:33:41;102170.19;;;4.65;100.00
69318;BME280;56457;52.190;4.440;2023-04-27T02:34:41;102166.84;;;4.67;100.00
69318;BME280;56457;52.190;4.440;2023-04-27T02:35:41;102173.81;;;4.68;100.00
69318;BME280;56457;52.190;4.440;2023-04-27T02:36:41;102170.84;;;4.59;100.00
69318;BME280;56457;52.190;4.440;2023-04-27T02:37:42;102169.81;;;4.54;100.00
69318;BME280;56457;52.190;4.440;2023-04-27T02:38:42;102173.22;;;4.53;100.00
69318;BME280;56457;52.190;4.440;2023-04-27T02:39:42;102174.34;;;4.59;100.00
69318;BME280;56457;52.190;4.440;2023-04-27T02:40:43;102176.06;;;4.59;100.00
69318;BME280;56457;52.190;4.440;2023-04-27T02:41:43;102173.44;;;4.59;100.00
69318;BME280;56457;52.190;4.440;2023-04-27T02:42:43;102178.66;;;4.59;100.00
69318;BME280;56457;52.190;4.440;2023-04-27T02:43:43;102168.16;;;4.56;100.00
69318;BME280;56457;52.190;4.440;2023-04-27T02:44:45;102174.28;;;4.58;100.00
69318;BME280;56457;52.190;4.440;2023-04-27T02:45:46;102168.25;;;4.59;100.00
69318;BME280;56457;52.190;4.440;2023-04-27T02:46:46;102167.50;;;4.62;100.00
69318;BME280;56457;52.190;4.440;2023-04-27T02:47:46;102171.59;;;4.55;100.00
69318;BME280;56457;52.190;4.440;2023-04-27T02:48:47;102167.97;;;4.51;100.00
69318;BME280;56457;52.190;4.440;2023-04-27T02:49:48;102178.31;;;4.50;100.00
69318;BME280;56457;52.190;4.440;2023-04-27T02:50:48;102181.25;;;4.59;100.00
69318;BME280;56457;52.190;4.440;2023-04-27T02:51:48;102184.41;;;4.50;100.00
69318;BME280;56457;52.190;4.440;2023-04-27T02:52:49;102181.78;;;4.50;100.00
69318;BME280;56457;52.190;4.440;2023-04-27T02:53:49;102172.22;;;4.49;100.00
69318;BME280;56457;52.190;4.440;2023-04-27T02:54:51;102179.97;;;4.48;100.00
69318;BME280;56457;52.190;4.440;2023-04-27T02:55:52;102190.44;;;4.49;100.00
69318;BME280;56457;52.190;4.440;2023-04-27T02:56:52;102191.38;;;4.51;100.00
69318;BME280;56457;52.190;4.440;2023-04-27T02:57:52;102187.13;;;4.53;100.00
69318;BME280;56457;52.190;4.440;2023-04-27T02:58:52;102189.72;;;4.53;100.00
69318;BME280;56457;52.190;4.440;2023-04-27T02:59:53;102190.63;;;4.54;100.00
69318;BME280;56457;52.190;4.440;2023-04-27T03:00:56;102192.19;;;4.50;100.00
69318;BME280;56457;52.190;4.440;2023-04-27T03:01:56;102186.81;;;4.46;100.00
69318;BME280;56457;52.190;4.440;2023-04-27T03:02:56;102190.44;;;4.49;100.00
69318;BME280;56457;52.190;4.440;2023-04-27T03:03:57;102187.63;;;4.45;100.00
69318;BME280;56457;52.190;4.440;2023-04-27T03:04:57;102192.09;;;4.47;100.00
69318;BME280;56457;52.190;4.440;2023-04-27T03:05:58;102195.50;;;4.46;100.00
69318;BME280;56457;52.190;4.440;2023-04-27T03:06:58;102197.84;;;4.40;100.00
69318;BME280;56457;52.190;4.440;2023-04-27T03:07:58;102196.13;;;4.41;100.00
69318;BME280;56457;52.190;4.440;2023-04-27T03:08:59;102190.88;;;4.39;100.00
69318;BME280;56457;52.190;4.440;2023-04-27T03:09:59;102194.38;;;4.40;100.00
69318;BME280;56457;52.190;4.440;2023-04-27T03:11:00;102188.34;;;4.41;100.00
69318;BME280;56457;52.190;4.440;2023-04-27T03:12:00;102192.84;;;4.45;100.00
69318;BME280;56457;52.190;4.440;2023-04-27T03:13:01;102187.59;;;4.43;100.00
69318;BME280;56457;52.190;4.440;2023-04-27T03:14:02;102192.84;;;4.45;100.00
69318;BME280;56457;52.190;4.440;2023-04-27T03:15:02;102192.78;;;4.43;100.00
69318;BME280;56457;52.190;4.440;2023-04-27T03:16:03;102188.44;;;4.42;100.00
69318;BME280;56457;52.190;4.440;2023-04-27T03:17:03;102192.00;;;4.46;100.00
69318;BME280;56457;52.190;4.440;2023-04-27T03:18:04;102186.81;;;4.46;100.00
69318;BME280;56457;52.190;4.440;2023-04-27T03:19:04;102186.16;;;4.51;100.00
69318;BME280;56457;52.190;4.440;2023-04-27T03:20:04;102195.63;;;4.49;100.00
69318;BME280;56457;52.190;4.440;2023-04-27T03:21:09;102191.25;;;4.48;100.00
69318;BME280;56457;52.190;4.440;2023-04-27T03:22:09;102194.97;;;4.55;100.00
69318;BME280;56457;52.190;4.440;2023-04-27T03:23:10;102193.97;;;4.51;100.00
69318;BME280;56457;52.190;4.440;2023-04-27T03:24:11;102191.50;;;4.54;100.00
69318;BME280;56457;52.190;4.440;2023-04-27T03:25:11;102186.16;;;4.51;100.00
69318;BME280;56457;52.190;4.440;2023-04-27T03:26:12;102188.81;;;4.53;100.00
69318;BME280;56457;52.190;4.440;2023-04-27T03:27:13;102193.91;;;4.50;100.00
69318;BME280;56457;52.190;4.440;2023-04-27T03:28:13;102190.47;;;4.51;100.00
69318;BME280;56457;52.190;4.440;2023-04-27T03:29:13;102192.97;;;4.48;100.00
69318;BME280;56457;52.190;4.440;2023-04-27T03:30:13;102185.28;;;4.51;100.00
69318;BME280;56457;52.190;4.440;2023-04-27T03:31:14;102189.72;;;4.53;100.00
69318;BME280;56457;52.190;4.440;2023-04-27T03:32:14;102186.94;;;4.49;100.00
69318;BME280;56457;52.190;4.440;2023-04-27T03:33:15;102182.59;;;4.48;100.00
69318;BME280;56457;52.190;4.440;2023-04-27T03:34:15;102190.38;;;4.48;100.00
69318;BME280;56457;52.190;4.440;2023-04-27T03:35:16;102190.13;;;4.42;100.00
69318;BME280;56457;52.190;4.440;2023-04-27T03:36:16;102182.22;;;4.39;100.00
69318;BME280;56457;52.190;4.440;2023-04-27T03:37:16;102175.94;;;4.33;100.00
69318;BME280;56457;52.190;4.440;2023-04-27T03:38:17;102178.44;;;4.30;100.00
69318;BME280;56457;52.190;4.440;2023-04-27T03:39:17;102177.56;;;4.30;100.00
69318;BME280;56457;52.190;4.440;2023-04-27T03:40:17;102184.31;;;4.26;100.00
69318;BME280;56457;52.190;4.440;2023-04-27T03:41:17;102182.47;;;4.22;100.00
69318;BME280;56457;52.190;4.440;2023-04-27T03:42:18;102178.06;;;4.21;100.00
69318;BME280;56457;52.190;4.440;2023-04-27T03:43:18;102189.28;;;4.20;100.00
69318;BME280;56457;52.190;4.440;2023-04-27T03:44:19;102184.97;;;4.21;100.00
69318;BME280;56457;52.190;4.440;2023-04-27T03:45:19;102181.28;;;4.16;100.00
69318;BME280;56457;52.190;4.440;2023-04-27T03:46:21;102185.75;;;4.18;100.00
69318;BME280;56457;52.190;4.440;2023-04-27T03:47:21;102192.72;;;4.19;100.00
69318;BME280;56457;52.190;4.440;2023-04-27T03:48:21;102194.47;;;4.20;100.00
69318;BME280;56457;52.190;4.440;2023-04-27T03:49:22;102196.19;;;4.20;100.00
69318;BME280;56457;52.190;4.440;2023-04-27T03:50:22;102185.81;;;4.20;100.00
69318;BME280;56457;52.190;4.440;2023-04-27T03:51:22;102196.13;;;4.18;100.00
69318;BME280;56457;52.190;4.440;2023-04-27T03:52:23;102199.81;;;4.23;100.00
69318;BME280;56457;52.190;4.440;2023-04-27T03:53:23;102200.06;;;4.29;100.00
69318;BME280;56457;52.190;4.440;2023-04-27T03:54:23;102197.63;;;4.34;100.00
69318;BME280;56457;52.190;4.440;2023-04-27T03:55:24;102199.41;;;4.35;100.00
69318;BME280;56457;52.190;4.440;2023-04-27T03:56:24;102197.69;;;4.36;100.00
69318;BME280;56457;52.190;4.440;2023-04-27T03:57:25;102199.28;;;4.32;100.00
69318;BME280;56457;52.190;4.440;2023-04-27T03:58:25;102199.28;;;4.32;100.00
69318;BME280;56457;52.190;4.440;2023-04-27T03:59:27;102202.66;;;4.29;100.00
69318;BME280;56457;52.190;4.440;2023-04-27T04:00:27;102195.59;;;4.27;100.00
69318;BME280;56457;52.190;4.440;2023-04-27T04:01:28;102207.72;;;4.26;100.00
69318;BME280;56457;52.190;4.440;2023-04-27T04:02:28;102199.09;;;4.27;100.00
69318;BME280;56457;52.190;4.440;2023-04-27T04:03:28;102202.50;;;4.26;100.00
69318;BME280;56457;52.190;4.440;2023-04-27T04:04:29;102200.94;;;4.30;100.00
69318;BME280;56457;52.190;4.440;2023-04-27T04:05:29;102210.56;;;4.32;100.00
69318;BME280;56457;52.190;4.440;2023-04-27T04:06:29;102207.13;;;4.33;100.00
69318;BME280;56457;52.190;4.440;2023-04-27T04:07:30;102211.69;;;4.39;100.00
69318;BME280;56457;52.190;4.440;2023-04-27T04:08:31;102211.72;;;4.41;100.00
69318;BME280;56457;52.190;4.440;2023-04-27T04:09:33;102213.59;;;4.43;100.00
69318;BME280;56457;52.190;4.440;2023-04-27T04:10:33;102210.28;;;4.47;100.00
69318;BME280;56457;52.190;4.440;2023-04-27T04:11:33;102213.81;;;4.49;100.00
69318;BME280;56457;52.190;4.440;2023-04-27T04:12:33;102217.66;;;4.37;100.00
69318;BME280;56457;52.190;4.440;2023-04-27T04:13:34;102221.13;;;4.37;100.00
69318;BME280;56457;52.190;4.440;2023-04-27T04:14:35;102216.81;;;4.38;100.00
69318;BME280;56457;52.190;4.440;2023-04-27T04:15:35;102215.09;;;4.38;100.00
69318;BME280;56457;52.190;4.440;2023-04-27T04:16:35;102220.19;;;4.35;100.00
69318;BME280;56457;52.190;4.440;2023-04-27T04:17:35;102213.16;;;4.32;100.00
69318;BME280;56457;52.190;4.440;2023-04-27T04:18:36;102219.75;;;4.24;100.00
69318;BME280;56457;52.190;4.440;2023-04-27T04:19:36;102225.91;;;4.26;100.00
69318;BME280;56457;52.190;4.440;2023-04-27T04:20:36;102225.94;;;4.28;100.00
69318;BME280;56457;52.190;4.440;2023-04-27T04:21:36;102217.28;;;4.27;100.00
69318;BME280;56457;52.190;4.440;2023-04-27T04:22:37;102221.72;;;4.30;100.00
69318;BME280;56457;52.190;4.440;2023-04-27T04:23:37;102224.47;;;4.35;100.00
69318;BME280;56457;52.190;4.440;2023-04-27T04:24:40;102225.44;;;4.37;100.00
69318;BME280;56457;52.190;4.440;2023-04-27T04:25:40;102228.16;;;4.40;100.00
69318;BME280;56457;52.190;4.440;2023-04-27T04:26:41;102227.31;;;4.41;100.00
69318;BME280;56457;52.190;4.440;2023-04-27T04:27:41;102223.03;;;4.41;100.00
69318;BME280;56457;52.190;4.440;2023-04-27T04:28:41;102224.72;;;4.41;100.00
69318;BME280;56457;52.190;4.440;2023-04-27T04:29:43;102223.91;;;4.42;100.00
69318;BME280;56457;52.190;4.440;2023-04-27T04:30:43;102233.47;;;4.43;100.00
69318;BME280;56457;52.190;4.440;2023-04-27T04:31:44;102230.09;;;4.45;100.00
69318;BME280;56457;52.190;4.440;2023-04-27T04:32:44;102231.97;;;4.48;100.00
69318;BME280;56457;52.190;4.440;2023-04-27T04:33:44;102220.53;;;4.44;100.00
69318;BME280;56457;52.190;4.440;2023-04-27T04:34:48;102229.28;;;4.46;100.00
69318;BME280;56457;52.190;4.440;2023-04-27T04:35:49;102225.88;;;4.47;100.00
69318;BME280;56457;52.190;4.440;2023-04-27T04:36:50;102230.16;;;4.47;100.00
69318;BME280;56457;52.190;4.440;2023-04-27T04:37:51;102231.97;;;4.48;100.00
69318;BME280;56457;52.190;4.440;2023-04-27T04:38:51;102235.34;;;4.47;100.00
69318;BME280;56457;52.190;4.440;2023-04-27T04:39:52;102230.25;;;4.48;100.00
69318;BME280;56457;52.190;4.440;2023-04-27T04:40:53;102236.19;;;4.46;100.00
69318;BME280;56457;52.190;4.440;2023-04-27T04:41:53;102237.06;;;4.46;100.00
69318;BME280;56457;52.190;4.440;2023-04-27T04:42:53;102244.88;;;4.46;100.00
69318;BME280;56457;52.190;4.440;2023-04-27T04:43:53;102232.66;;;4.44;100.00
69318;BME280;56457;52.190;4.440;2023-04-27T04:44:54;102236.19;;;4.46;100.00
69318;BME280;56457;52.190;4.440;2023-04-27T04:45:54;102239.63;;;4.45;100.00
69318;BME280;56457;52.190;4.440;2023-04-27T04:46:55;102232.00;;;4.49;100.00
69318;BME280;56457;52.190;4.440;2023-04-27T04:47:55;102237.03;;;4.45;100.00
69318;BME280;56457;52.190;4.440;2023-04-27T04:48:55;102238.78;;;4.46;100.00
69318;BME280;56457;52.190;4.440;2023-04-27T04:49:56;102232.66;;;4.44;100.00
69318;BME280;56457;52.190;4.440;2023-04-27T04:50:56;102230.84;;;4.41;100.00
69318;BME280;56457;52.190;4.440;2023-04-27T04:51:56;102236.97;;;4.43;100.00
69318;BME280;56457;52.190;4.440;2023-04-27T04:52:57;102237.03;;;4.45;100.00
69318;BME280;56457;52.190;4.440;2023-04-27T04:53:57;102230.94;;;4.44;100.00
69318;BME280;56457;52.190;4.440;2023-04-27T04:54:57;102227.47;;;4.44;100.00
69318;BME280;56457;52.190;4.440;2023-04-27T04:56:06;102231.00;;;4.46;100.00
69318;BME280;56457;52.190;4.440;2023-04-27T04:57:06;102227.47;;;4.44;100.00
69318;BME280;56457;52.190;4.440;2023-04-27T04:58:07;102229.16;;;4.43;100.00
69318;BME280;56457;52.190;4.440;2023-04-27T04:59:07;102230.88;;;4.43;100.00
69318;BME280;56457;52.190;4.440;2023-04-27T05:00:07;102226.56;;;4.43;100.00
69318;BME280;56457;52.190;4.440;2023-04-27T05:01:11;102235.25;;;4.44;100.00
69318;BME280;56457;52.190;4.440;2023-04-27T05:02:11;102227.66;;;4.48;100.00
69318;BME280;56457;52.190;4.440;2023-04-27T05:03:12;102224.97;;;4.47;100.00
69318;BME280;56457;52.190;4.440;2023-04-27T05:04:12;102230.94;;;4.44;100.00
69318;BME280;56457;52.190;4.440;2023-04-27T05:05:12;102227.56;;;4.47;100.00
69318;BME280;56457;52.190;4.440;2023-04-27T05:06:12;102227.66;;;4.48;100.00
69318;BME280;56457;52.190;4.440;2023-04-27T05:07:13;102230.34;;;4.51;100.00
69318;BME280;56457;52.190;4.440;2023-04-27T05:08:13;102233.91;;;4.53;100.00
69318;BME280;56457;52.190;4.440;2023-04-27T05:09:14;102230.47;;;4.54;100.00
69318;BME280;56457;52.190;4.440;2023-04-27T05:10:14;102228.03;;;4.59;100.00
69318;BME280;56457;52.190;4.440;2023-04-27T05:11:14;102230.78;;;4.62;100.00
69318;BME280;56457;52.190;4.440;2023-04-27T05:12:15;102232.53;;;4.63;100.00
69318;BME280;56457;52.190;4.440;2023-04-27T05:13:15;102225.69;;;4.65;100.00
69318;BME280;56457;52.190;4.440;2023-04-27T05:14:15;102230.81;;;4.64;100.00
69318;BME280;56457;52.190;4.440;2023-04-27T05:15:16;102231.75;;;4.66;100.00
69318;BME280;56457;52.190;4.440;2023-04-27T05:16:17;102230.13;;;4.68;100.00